sensor_id;sensor_type;location;lat;lon;timestamp;P1;durP1;ratioP1;P2;durP2;ratioP2
53263;SDS011;39153;52.680;6.172;2023-01-01T00:01:58;47.05;;;35.70;;
53263;SDS011;39153;52.680;6.172;2023-01-01T00:04:24;54.67;;;41.38;;
53263;SDS011;39153;52.680;6.172;2023-01-01T00:06:50;50.13;;;35.92;;
53263;SDS011;39153;52.680;6.172;2023-01-01T00:09:16;49.28;;;35.65;;
53263;SDS011;39153;52.680;6.172;2023-01-01T00:12:00;43.88;;;35.58;;
53263;SDS011;39153;52.680;6.172;2023-01-01T00:14:26;43.28;;;31.63;;
53263;SDS011;39153;52.680;6.172;2023-01-01T00:16:55;43.95;;;32.83;;
53263;SDS011;39153;52.680;6.172;2023-01-01T00:19:21;41.42;;;32.08;;
53263;SDS011;39153;52.680;6.172;2023-01-01T00:21:46;47.72;;;31.73;;
53263;SDS011;39153;52.680;6.172;2023-01-01T00:24:12;39.00;;;29.88;;
53263;SDS011;39153;52.680;6.172;2023-01-01T00:26:38;49.50;;;33.67;;
53263;SDS011;39153;52.680;6.172;2023-01-01T00:29:04;39.10;;;29.55;;
53263;SDS011;39153;52.680;6.172;2023-01-01T00:31:29;44.28;;;33.00;;
53263;SDS011;39153;52.680;6.172;2023-01-01T00:33:55;44.33;;;33.70;;
53263;SDS011;39153;52.680;6.172;2023-01-01T00:36:22;41.17;;;31.80;;
53263;SDS011;39153;52.680;6.172;2023-01-01T00:38:50;41.00;;;30.90;;
53263;SDS011;39153;52.680;6.172;2023-01-01T00:41:16;41.83;;;31.67;;
53263;SDS011;39153;52.680;6.172;2023-01-01T00:43:42;45.03;;;34.08;;
53263;SDS011;39153;52.680;6.172;2023-01-01T00:46:09;42.97;;;33.22;;
53263;SDS011;39153;52.680;6.172;2023-01-01T00:48:35;43.60;;;31.25;;
53263;SDS011;39153;52.680;6.172;2023-01-01T00:51:01;42.20;;;29.73;;
53263;SDS011;39153;52.680;6.172;2023-01-01T00:53:27;42.63;;;32.53;;
53263;SDS011;39153;52.680;6.172;2023-01-01T00:55:53;43.00;;;29.10;;
53263;SDS011;39153;52.680;6.172;2023-01-01T00:58:20;44.88;;;32.78;;
53263;SDS011;39153;52.680;6.172;2023-01-01T01:00:48;45.67;;;32.55;;
53263;SDS011;39153;52.680;6.172;2023-01-01T01:03:14;41.72;;;30.23;;
53263;SDS011;39153;52.680;6.172;2023-01-01T01:08:26;42.80;;;32.15;;
53263;SDS011;39153;52.680;6.172;2023-01-01T01:10:53;40.97;;;31.38;;
53263;SDS011;39153;52.680;6.172;2023-01-01T01:13:20;39.47;;;30.27;;
53263;SDS011;39153;52.680;6.172;2023-01-01T01:15:46;36.92;;;29.48;;
53263;SDS011;39153;52.680;6.172;2023-01-01T01:18:12;37.85;;;27.10;;
53263;SDS011;39153;52.680;6.172;2023-01-01T01:20:38;37.78;;;28.90;;
53263;SDS011;39153;52.680;6.172;2023-01-01T01:23:04;36.00;;;27.13;;
53263;SDS011;39153;52.680;6.172;2023-01-01T01:25:29;40.10;;;27.50;;
53263;SDS011;39153;52.680;6.172;2023-01-01T01:27:55;35.70;;;26.30;;
53263;SDS011;39153;52.680;6.172;2023-01-01T01:30:21;40.50;;;28.15;;
53263;SDS011;39153;52.680;6.172;2023-01-01T01:32:46;33.40;;;25.30;;
53263;SDS011;39153;52.680;6.172;2023-01-01T01:35:12;40.38;;;25.13;;
53263;SDS011;39153;52.680;6.172;2023-01-01T01:37:38;37.28;;;23.35;;
53263;SDS011;39153;52.680;6.172;2023-01-01T01:40:04;28.20;;;20.02;;
53263;SDS011;39153;52.680;6.172;2023-01-01T01:42:30;29.98;;;23.15;;
53263;SDS011;39153;52.680;6.172;2023-01-01T01:44:57;30.85;;;19.45;;
53263;SDS011;39153;52.680;6.172;2023-01-01T01:53:01;30.90;;;20.08;;
53263;SDS011;39153;52.680;6.172;2023-01-01T01:55:33;30.35;;;18.10;;
53263;SDS011;39153;52.680;6.172;2023-01-01T01:58:01;29.08;;;19.52;;
53263;SDS011;39153;52.680;6.172;2023-01-01T02:00:28;32.15;;;20.30;;
53263;SDS011;39153;52.680;6.172;2023-01-01T02:05:23;26.40;;;16.52;;
53263;SDS011;39153;52.680;6.172;2023-01-01T02:07:50;24.02;;;16.15;;
53263;SDS011;39153;52.680;6.172;2023-01-01T02:10:18;24.15;;;14.40;;
53263;SDS011;39153;52.680;6.172;2023-01-01T02:12:43;25.27;;;13.98;;
53263;SDS011;39153;52.680;6.172;2023-01-01T02:15:09;23.30;;;14.13;;
53263;SDS011;39153;52.680;6.172;2023-01-01T02:26:28;24.05;;;11.57;;
53263;SDS011;39153;52.680;6.172;2023-01-01T02:28:58;22.67;;;11.48;;
53263;SDS011;39153;52.680;6.172;2023-01-01T02:31:33;19.77;;;10.10;;
53263;SDS011;39153;52.680;6.172;2023-01-01T02:34:06;18.67;;;10.35;;
53263;SDS011;39153;52.680;6.172;2023-01-01T02:36:37;21.55;;;11.00;;
53263;SDS011;39153;52.680;6.172;2023-01-01T02:39:08;20.08;;;11.15;;
53263;SDS011;39153;52.680;6.172;2023-01-01T02:41:40;17.90;;;9.43;;
53263;SDS011;39153;52.680;6.172;2023-01-01T02:44:10;14.05;;;8.15;;
53263;SDS011;39153;52.680;6.172;2023-01-01T02:46:36;13.35;;;7.53;;
53263;SDS011;39153;52.680;6.172;2023-01-01T02:49:02;16.52;;;6.57;;
53263;SDS011;39153;52.680;6.172;2023-01-01T02:51:36;19.00;;;6.53;;
53263;SDS011;39153;52.680;6.172;2023-01-01T02:56:59;12.75;;;5.50;;
53263;SDS011;39153;52.680;6.172;2023-01-01T02:59:34;14.25;;;5.05;;
53263;SDS011;39153;52.680;6.172;2023-01-01T03:05:39;11.82;;;4.60;;
53263;SDS011;39153;52.680;6.172;2023-01-01T03:08:51;14.80;;;4.43;;
53263;SDS011;39153;52.680;6.172;2023-01-01T03:11:45;11.50;;;4.20;;
53263;SDS011;39153;52.680;6.172;2023-01-01T03:17:01;10.70;;;4.10;;
53263;SDS011;39153;52.680;6.172;2023-01-01T03:19:33;12.32;;;3.70;;
53263;SDS011;39153;52.680;6.172;2023-01-01T03:22:06;14.00;;;4.32;;
53263;SDS011;39153;52.680;6.172;2023-01-01T03:27:14;13.55;;;3.78;;
53263;SDS011;39153;52.680;6.172;2023-01-01T03:29:56;12.32;;;3.30;;
53263;SDS011;39153;52.680;6.172;2023-01-01T03:32:26;9.45;;;3.55;;
53263;SDS011;39153;52.680;6.172;2023-01-01T03:35:18;9.77;;;3.63;;
53263;SDS011;39153;52.680;6.172;2023-01-01T03:37:47;10.35;;;3.42;;
53263;SDS011;39153;52.680;6.172;2023-01-01T03:40:16;9.38;;;3.20;;
53263;SDS011;39153;52.680;6.172;2023-01-01T03:42:45;12.52;;;3.40;;
53263;SDS011;39153;52.680;6.172;2023-01-01T03:45:16;12.48;;;3.42;;
53263;SDS011;39153;52.680;6.172;2023-01-01T03:47:43;8.23;;;3.13;;
53263;SDS011;39153;52.680;6.172;2023-01-01T03:50:10;11.55;;;3.40;;
53263;SDS011;39153;52.680;6.172;2023-01-01T03:52:43;9.57;;;3.17;;
53263;SDS011;39153;52.680;6.172;2023-01-01T03:55:33;8.85;;;2.88;;
53263;SDS011;39153;52.680;6.172;2023-01-01T03:58:23;7.20;;;2.90;;
53263;SDS011;39153;52.680;6.172;2023-01-01T04:00:56;8.88;;;2.90;;
53263;SDS011;39153;52.680;6.172;2023-01-01T04:03:28;12.85;;;3.45;;
53263;SDS011;39153;52.680;6.172;2023-01-01T04:05:56;9.00;;;2.65;;
53263;SDS011;39153;52.680;6.172;2023-01-01T04:08:22;10.60;;;2.92;;
53263;SDS011;39153;52.680;6.172;2023-01-01T04:10:52;8.90;;;2.50;;
53263;SDS011;39153;52.680;6.172;2023-01-01T04:13:21;10.35;;;2.83;;
53263;SDS011;39153;52.680;6.172;2023-01-01T04:15:47;10.10;;;2.63;;
53263;SDS011;39153;52.680;6.172;2023-01-01T04:18:12;13.52;;;3.13;;
53263;SDS011;39153;52.680;6.172;2023-01-01T04:20:38;9.73;;;2.85;;
53263;SDS011;39153;52.680;6.172;2023-01-01T04:23:04;8.77;;;2.63;;
53263;SDS011;39153;52.680;6.172;2023-01-01T04:25:30;9.93;;;2.88;;
53263;SDS011;39153;52.680;6.172;2023-01-01T04:27:56;10.00;;;2.72;;
53263;SDS011;39153;52.680;6.172;2023-01-01T04:30:22;12.25;;;3.00;;
53263;SDS011;39153;52.680;6.172;2023-01-01T04:32:48;8.38;;;2.22;;
53263;SDS011;39153;52.680;6.172;2023-01-01T04:35:14;6.95;;;2.20;;
53263;SDS011;39153;52.680;6.172;2023-01-01T04:37:40;9.45;;;2.65;;
53263;SDS011;39153;52.680;6.172;2023-01-01T04:40:08;9.63;;;2.20;;
53263;SDS011;39153;52.680;6.172;2023-01-01T04:42:34;9.95;;;2.60;;
53263;SDS011;39153;52.680;6.172;2023-01-01T04:45:00;7.85;;;2.60;;
53263;SDS011;39153;52.680;6.172;2023-01-01T04:47:26;9.35;;;2.47;;
53263;SDS011;39153;52.680;6.172;2023-01-01T04:49:52;9.88;;;2.50;;
53263;SDS011;39153;52.680;6.172;2023-01-01T04:52:18;7.70;;;2.28;;
53263;SDS011;39153;52.680;6.172;2023-01-01T04:54:44;9.68;;;2.20;;
53263;SDS011;39153;52.680;6.172;2023-01-01T04:57:10;7.82;;;2.33;;
53263;SDS011;39153;52.680;6.172;2023-01-01T04:59:36;10.35;;;2.30;;
53263;SDS011;39153;52.680;6.172;2023-01-01T05:02:02;8.48;;;2.00;;
53263;SDS011;39153;52.680;6.172;2023-01-01T05:04:27;11.07;;;2.70;;
53263;SDS011;39153;52.680;6.172;2023-01-01T05:06:53;8.75;;;2.35;;
53263;SDS011;39153;52.680;6.172;2023-01-01T05:09:19;6.18;;;1.75;;
53263;SDS011;39153;52.680;6.172;2023-01-01T05:11:45;9.30;;;1.92;;
53263;SDS011;39153;52.680;6.172;2023-01-01T05:14:10;7.28;;;1.85;;
53263;SDS011;39153;52.680;6.172;2023-01-01T05:16:37;8.00;;;2.22;;
53263;SDS011;39153;52.680;6.172;2023-01-01T05:19:03;7.53;;;1.73;;
53263;SDS011;39153;52.680;6.172;2023-01-01T05:21:32;6.80;;;1.52;;
53263;SDS011;39153;52.680;6.172;2023-01-01T05:24:00;7.18;;;1.60;;
53263;SDS011;39153;52.680;6.172;2023-01-01T05:26:29;7.22;;;1.90;;
53263;SDS011;39153;52.680;6.172;2023-01-01T05:28:56;8.13;;;1.92;;
53263;SDS011;39153;52.680;6.172;2023-01-01T05:31:24;7.05;;;1.90;;
53263;SDS011;39153;52.680;6.172;2023-01-01T05:33:52;6.85;;;1.90;;
53263;SDS011;39153;52.680;6.172;2023-01-01T05:36:19;6.32;;;1.63;;
53263;SDS011;39153;52.680;6.172;2023-01-01T05:38:47;7.38;;;1.58;;
53263;SDS011;39153;52.680;6.172;2023-01-01T05:41:14;6.15;;;1.40;;
53263;SDS011;39153;52.680;6.172;2023-01-01T05:43:40;6.90;;;1.70;;
53263;SDS011;39153;52.680;6.172;2023-01-01T05:46:09;8.82;;;1.67;;
53263;SDS011;39153;52.680;6.172;2023-01-01T05:48:36;5.25;;;1.48;;
53263;SDS011;39153;52.680;6.172;2023-01-01T05:51:06;6.03;;;1.50;;
53263;SDS011;39153;52.680;6.172;2023-01-01T05:56:02;7.53;;;1.85;;
53263;SDS011;39153;52.680;6.172;2023-01-01T05:58:29;8.75;;;1.77;;
53263;SDS011;39153;52.680;6.172;2023-01-01T06:00:56;9.93;;;1.80;;
53263;SDS011;39153;52.680;6.172;2023-01-01T06:03:51;7.10;;;1.38;;
53263;SDS011;39153;52.680;6.172;2023-01-01T06:06:18;6.32;;;1.73;;
53263;SDS011;39153;52.680;6.172;2023-01-01T06:08:49;8.68;;;1.92;;
53263;SDS011;39153;52.680;6.172;2023-01-01T06:11:16;6.65;;;1.73;;
53263;SDS011;39153;52.680;6.172;2023-01-01T06:13:42;6.75;;;2.00;;
53263;SDS011;39153;52.680;6.172;2023-01-01T06:16:08;7.07;;;1.77;;
53263;SDS011;39153;52.680;6.172;2023-01-01T06:18:34;7.32;;;1.70;;
53263;SDS011;39153;52.680;6.172;2023-01-01T06:21:07;7.75;;;2.25;;
53263;SDS011;39153;52.680;6.172;2023-01-01T06:23:35;4.53;;;1.83;;
53263;SDS011;39153;52.680;6.172;2023-01-01T06:26:08;8.93;;;1.83;;
53263;SDS011;39153;52.680;6.172;2023-01-01T06:28:36;7.15;;;1.83;;
53263;SDS011;39153;52.680;6.172;2023-01-01T06:31:03;9.82;;;2.17;;
53263;SDS011;39153;52.680;6.172;2023-01-01T06:33:30;9.50;;;1.70;;
53263;SDS011;39153;52.680;6.172;2023-01-01T06:35:56;9.15;;;1.95;;
53263;SDS011;39153;52.680;6.172;2023-01-01T06:38:22;11.07;;;1.92;;
53263;SDS011;39153;52.680;6.172;2023-01-01T06:40:58;10.70;;;1.95;;
53263;SDS011;39153;52.680;6.172;2023-01-01T06:43:29;7.88;;;2.20;;
53263;SDS011;39153;52.680;6.172;2023-01-01T06:46:00;8.20;;;1.98;;
53263;SDS011;39153;52.680;6.172;2023-01-01T06:48:46;9.60;;;2.25;;
53263;SDS011;39153;52.680;6.172;2023-01-01T06:51:14;7.80;;;2.05;;
53263;SDS011;39153;52.680;6.172;2023-01-01T06:53:41;8.25;;;1.73;;
53263;SDS011;39153;52.680;6.172;2023-01-01T06:56:07;7.65;;;2.20;;
53263;SDS011;39153;52.680;6.172;2023-01-01T06:58:33;8.88;;;2.00;;
53263;SDS011;39153;52.680;6.172;2023-01-01T07:01:09;10.05;;;1.83;;
53263;SDS011;39153;52.680;6.172;2023-01-01T07:03:36;12.55;;;2.30;;
53263;SDS011;39153;52.680;6.172;2023-01-01T07:06:02;7.47;;;2.15;;
53263;SDS011;39153;52.680;6.172;2023-01-01T07:08:29;6.57;;;1.80;;
53263;SDS011;39153;52.680;6.172;2023-01-01T07:10:54;11.45;;;2.22;;
53263;SDS011;39153;52.680;6.172;2023-01-01T07:13:25;11.75;;;2.08;;
53263;SDS011;39153;52.680;6.172;2023-01-01T07:15:51;12.77;;;2.47;;
53263;SDS011;39153;52.680;6.172;2023-01-01T07:18:21;9.25;;;2.25;;
53263;SDS011;39153;52.680;6.172;2023-01-01T07:20:51;8.18;;;1.73;;
53263;SDS011;39153;52.680;6.172;2023-01-01T07:23:18;8.10;;;1.77;;
53263;SDS011;39153;52.680;6.172;2023-01-01T07:25:44;9.40;;;1.77;;
53263;SDS011;39153;52.680;6.172;2023-01-01T07:28:10;9.73;;;2.00;;
53263;SDS011;39153;52.680;6.172;2023-01-01T07:30:37;8.95;;;1.90;;
53263;SDS011;39153;52.680;6.172;2023-01-01T07:33:02;10.45;;;1.75;;
53263;SDS011;39153;52.680;6.172;2023-01-01T07:35:28;11.05;;;2.22;;
53263;SDS011;39153;52.680;6.172;2023-01-01T07:37:54;12.35;;;1.92;;
53263;SDS011;39153;52.680;6.172;2023-01-01T07:40:19;9.10;;;1.90;;
53263;SDS011;39153;52.680;6.172;2023-01-01T07:42:45;11.15;;;1.90;;
53263;SDS011;39153;52.680;6.172;2023-01-01T07:45:11;9.30;;;1.83;;
53263;SDS011;39153;52.680;6.172;2023-01-01T07:47:38;10.43;;;2.28;;
53263;SDS011;39153;52.680;6.172;2023-01-01T07:50:03;11.98;;;2.25;;
53263;SDS011;39153;52.680;6.172;2023-01-01T07:52:29;8.90;;;1.92;;
53263;SDS011;39153;52.680;6.172;2023-01-01T07:54:55;9.90;;;2.28;;
53263;SDS011;39153;52.680;6.172;2023-01-01T07:57:21;9.02;;;1.67;;
53263;SDS011;39153;52.680;6.172;2023-01-01T07:59:46;9.80;;;2.10;;
53263;SDS011;39153;52.680;6.172;2023-01-01T08:02:12;8.63;;;1.98;;
53263;SDS011;39153;52.680;6.172;2023-01-01T08:04:38;7.75;;;1.75;;
53263;SDS011;39153;52.680;6.172;2023-01-01T08:07:04;10.82;;;2.17;;
53263;SDS011;39153;52.680;6.172;2023-01-01T08:09:30;11.35;;;2.03;;
53263;SDS011;39153;52.680;6.172;2023-01-01T08:11:55;10.40;;;1.75;;
53263;SDS011;39153;52.680;6.172;2023-01-01T08:14:23;11.25;;;1.98;;
53263;SDS011;39153;52.680;6.172;2023-01-01T08:16:51;9.40;;;1.85;;
53263;SDS011;39153;52.680;6.172;2023-01-01T08:19:17;14.93;;;2.53;;
53263;SDS011;39153;52.680;6.172;2023-01-01T08:21:42;7.78;;;1.70;;
53263;SDS011;39153;52.680;6.172;2023-01-01T08:24:08;12.35;;;2.05;;
53263;SDS011;39153;52.680;6.172;2023-01-01T08:26:34;7.50;;;1.75;;
53263;SDS011;39153;52.680;6.172;2023-01-01T08:29:04;10.68;;;2.10;;
53263;SDS011;39153;52.680;6.172;2023-01-01T08:31:31;11.32;;;1.90;;
53263;SDS011;39153;52.680;6.172;2023-01-01T08:33:57;12.27;;;2.22;;
53263;SDS011;39153;52.680;6.172;2023-01-01T08:36:23;8.73;;;1.92;;
53263;SDS011;39153;52.680;6.172;2023-01-01T08:38:49;9.73;;;1.90;;
53263;SDS011;39153;52.680;6.172;2023-01-01T08:41:14;9.35;;;1.65;;
53263;SDS011;39153;52.680;6.172;2023-01-01T08:43:40;10.07;;;1.98;;
53263;SDS011;39153;52.680;6.172;2023-01-01T08:46:06;9.95;;;1.75;;
53263;SDS011;39153;52.680;6.172;2023-01-01T08:48:32;10.48;;;2.22;;
53263;SDS011;39153;52.680;6.172;2023-01-01T08:50:58;11.30;;;1.95;;
53263;SDS011;39153;52.680;6.172;2023-01-01T08:53:25;10.80;;;1.95;;
53263;SDS011;39153;52.680;6.172;2023-01-01T08:55:58;10.95;;;2.10;;
53263;SDS011;39153;52.680;6.172;2023-01-01T08:58:26;10.43;;;2.25;;
53263;SDS011;39153;52.680;6.172;2023-01-01T09:00:52;13.82;;;1.85;;
53263;SDS011;39153;52.680;6.172;2023-01-01T09:03:18;11.55;;;2.10;;
53263;SDS011;39153;52.680;6.172;2023-01-01T09:05:44;13.52;;;2.13;;
53263;SDS011;39153;52.680;6.172;2023-01-01T09:08:13;14.90;;;2.33;;
53263;SDS011;39153;52.680;6.172;2023-01-01T09:10:39;11.48;;;1.80;;
53263;SDS011;39153;52.680;6.172;2023-01-01T09:13:07;10.68;;;2.28;;
53263;SDS011;39153;52.680;6.172;2023-01-01T09:15:34;11.00;;;2.40;;
53263;SDS011;39153;52.680;6.172;2023-01-01T09:17:59;9.82;;;1.80;;
53263;SDS011;39153;52.680;6.172;2023-01-01T09:20:25;9.85;;;1.88;;
53263;SDS011;39153;52.680;6.172;2023-01-01T09:22:51;11.48;;;1.90;;
53263;SDS011;39153;52.680;6.172;2023-01-01T09:25:18;8.70;;;1.77;;
53263;SDS011;39153;52.680;6.172;2023-01-01T09:27:43;12.57;;;1.92;;
53263;SDS011;39153;52.680;6.172;2023-01-01T09:30:09;11.20;;;2.67;;
53263;SDS011;39153;52.680;6.172;2023-01-01T09:32:35;16.77;;;6.70;;
53263;SDS011;39153;52.680;6.172;2023-01-01T09:35:01;26.15;;;15.38;;
53263;SDS011;39153;52.680;6.172;2023-01-01T09:37:27;19.98;;;11.98;;
53263;SDS011;39153;52.680;6.172;2023-01-01T09:39:53;19.58;;;9.40;;
53263;SDS011;39153;52.680;6.172;2023-01-01T09:45:25;14.35;;;6.68;;
53263;SDS011;39153;52.680;6.172;2023-01-01T09:48:02;16.27;;;4.88;;
53263;SDS011;39153;52.680;6.172;2023-01-01T09:50:34;11.13;;;3.28;;
53263;SDS011;39153;52.680;6.172;2023-01-01T09:53:11;15.07;;;4.10;;
53263;SDS011;39153;52.680;6.172;2023-01-01T09:58:06;11.55;;;2.30;;
53263;SDS011;39153;52.680;6.172;2023-01-01T10:00:35;9.43;;;1.92;;
53263;SDS011;39153;52.680;6.172;2023-01-01T10:03:09;14.90;;;6.13;;
53263;SDS011;39153;52.680;6.172;2023-01-01T10:05:51;16.60;;;7.53;;
53263;SDS011;39153;52.680;6.172;2023-01-01T10:13:52;11.55;;;2.00;;
53263;SDS011;39153;52.680;6.172;2023-01-01T10:19:11;11.27;;;2.15;;
53263;SDS011;39153;52.680;6.172;2023-01-01T10:21:45;10.07;;;1.92;;
53263;SDS011;39153;52.680;6.172;2023-01-01T10:27:08;10.02;;;2.42;;
53263;SDS011;39153;52.680;6.172;2023-01-01T10:29:49;11.75;;;2.20;;
53263;SDS011;39153;52.680;6.172;2023-01-01T10:32:24;14.30;;;2.30;;
53263;SDS011;39153;52.680;6.172;2023-01-01T10:34:53;11.82;;;2.00;;
53263;SDS011;39153;52.680;6.172;2023-01-01T10:37:19;14.55;;;2.40;;
53263;SDS011;39153;52.680;6.172;2023-01-01T10:39:46;10.05;;;2.17;;
53263;SDS011;39153;52.680;6.172;2023-01-01T10:42:12;11.98;;;2.03;;
53263;SDS011;39153;52.680;6.172;2023-01-01T10:44:39;10.57;;;1.85;;
53263;SDS011;39153;52.680;6.172;2023-01-01T10:47:22;12.75;;;2.13;;
53263;SDS011;39153;52.680;6.172;2023-01-01T10:55:01;13.13;;;2.03;;
53263;SDS011;39153;52.680;6.172;2023-01-01T10:57:37;10.98;;;2.28;;
53263;SDS011;39153;52.680;6.172;2023-01-01T11:00:18;12.10;;;2.45;;
53263;SDS011;39153;52.680;6.172;2023-01-01T11:02:46;14.13;;;2.30;;
53263;SDS011;39153;52.680;6.172;2023-01-01T11:07:43;12.05;;;2.47;;
53263;SDS011;39153;52.680;6.172;2023-01-01T11:10:22;13.55;;;2.65;;
53263;SDS011;39153;52.680;6.172;2023-01-01T11:12:49;10.07;;;1.95;;
53263;SDS011;39153;52.680;6.172;2023-01-01T11:15:22;11.43;;;2.28;;
53263;SDS011;39153;52.680;6.172;2023-01-01T11:18:12;8.80;;;2.08;;
53263;SDS011;39153;52.680;6.172;2023-01-01T11:20:55;11.27;;;2.30;;
53263;SDS011;39153;52.680;6.172;2023-01-01T11:23:29;13.35;;;2.70;;
53263;SDS011;39153;52.680;6.172;2023-01-01T11:28:43;14.77;;;2.67;;
53263;SDS011;39153;52.680;6.172;2023-01-01T11:31:28;16.23;;;3.25;;
53263;SDS011;39153;52.680;6.172;2023-01-01T11:33:59;15.80;;;2.65;;
53263;SDS011;39153;52.680;6.172;2023-01-01T11:36:31;12.15;;;2.38;;
53263;SDS011;39153;52.680;6.172;2023-01-01T11:41:50;13.07;;;2.67;;
53263;SDS011;39153;52.680;6.172;2023-01-01T11:47:17;11.50;;;2.00;;
53263;SDS011;39153;52.680;6.172;2023-01-01T11:50:38;13.60;;;2.45;;
53263;SDS011;39153;52.680;6.172;2023-01-01T11:52:54;12.65;;;2.50;;
53263;SDS011;39153;52.680;6.172;2023-01-01T12:04:01;11.70;;;2.67;;
53263;SDS011;39153;52.680;6.172;2023-01-01T12:07:01;9.85;;;1.88;;
53263;SDS011;39153;52.680;6.172;2023-01-01T12:18:05;11.20;;;2.40;;
53263;SDS011;39153;52.680;6.172;2023-01-01T12:20:58;15.25;;;2.33;;
53263;SDS011;39153;52.680;6.172;2023-01-01T12:23:27;14.38;;;2.55;;
53263;SDS011;39153;52.680;6.172;2023-01-01T12:26:04;13.98;;;2.72;;
53263;SDS011;39153;52.680;6.172;2023-01-01T12:37:19;11.32;;;2.08;;
53263;SDS011;39153;52.680;6.172;2023-01-01T12:43:09;10.48;;;2.72;;
53263;SDS011;39153;52.680;6.172;2023-01-01T12:56:59;15.25;;;2.70;;
53263;SDS011;39153;52.680;6.172;2023-01-01T12:59:35;14.98;;;3.13;;
53263;SDS011;39153;52.680;6.172;2023-01-01T13:02:11;12.27;;;2.55;;
53263;SDS011;39153;52.680;6.172;2023-01-01T13:04:44;15.05;;;3.38;;
53263;SDS011;39153;52.680;6.172;2023-01-01T13:07:13;11.07;;;2.45;;
53263;SDS011;39153;52.680;6.172;2023-01-01T13:09:46;15.63;;;3.22;;
53263;SDS011;39153;52.680;6.172;2023-01-01T13:12:21;11.07;;;2.67;;
53263;SDS011;39153;52.680;6.172;2023-01-01T13:14:49;10.75;;;2.47;;
53263;SDS011;39153;52.680;6.172;2023-01-01T13:17:19;15.05;;;2.85;;
53263;SDS011;39153;52.680;6.172;2023-01-01T13:19:45;17.90;;;3.28;;
53263;SDS011;39153;52.680;6.172;2023-01-01T13:57:34;16.05;;;2.95;;
53263;SDS011;39153;52.680;6.172;2023-01-01T14:05:34;13.85;;;3.72;;
53263;SDS011;39153;52.680;6.172;2023-01-01T14:08:23;15.85;;;2.80;;
53263;SDS011;39153;52.680;6.172;2023-01-01T14:11:00;10.32;;;2.70;;
53263;SDS011;39153;52.680;6.172;2023-01-01T14:13:28;16.02;;;3.38;;
53263;SDS011;39153;52.680;6.172;2023-01-01T14:15:57;17.08;;;4.03;;
53263;SDS011;39153;52.680;6.172;2023-01-01T14:18:37;12.85;;;3.33;;
53263;SDS011;39153;52.680;6.172;2023-01-01T14:21:08;13.95;;;3.63;;
53263;SDS011;39153;52.680;6.172;2023-01-01T14:23:38;15.57;;;3.63;;
53263;SDS011;39153;52.680;6.172;2023-01-01T14:26:10;12.65;;;3.10;;
53263;SDS011;39153;52.680;6.172;2023-01-01T14:28:39;18.13;;;3.55;;
53263;SDS011;39153;52.680;6.172;2023-01-01T14:31:09;12.18;;;3.22;;
53263;SDS011;39153;52.680;6.172;2023-01-01T14:33:37;16.13;;;3.70;;
53263;SDS011;39153;52.680;6.172;2023-01-01T14:36:04;16.98;;;3.25;;
53263;SDS011;39153;52.680;6.172;2023-01-01T14:38:42;16.08;;;3.42;;
53263;SDS011;39153;52.680;6.172;2023-01-01T14:41:15;11.73;;;2.70;;
53263;SDS011;39153;52.680;6.172;2023-01-01T14:43:45;17.50;;;3.03;;
53263;SDS011;39153;52.680;6.172;2023-01-01T14:46:17;14.80;;;2.90;;
53263;SDS011;39153;52.680;6.172;2023-01-01T14:48:45;13.45;;;2.83;;
53263;SDS011;39153;52.680;6.172;2023-01-01T14:51:19;20.02;;;3.72;;
53263;SDS011;39153;52.680;6.172;2023-01-01T14:53:47;18.35;;;3.08;;
53263;SDS011;39153;52.680;6.172;2023-01-01T14:56:28;15.07;;;2.95;;
53263;SDS011;39153;52.680;6.172;2023-01-01T14:58:55;14.82;;;3.00;;
53263;SDS011;39153;52.680;6.172;2023-01-01T15:01:34;16.30;;;2.80;;
53263;SDS011;39153;52.680;6.172;2023-01-01T15:04:01;16.80;;;3.22;;
53263;SDS011;39153;52.680;6.172;2023-01-01T15:06:28;14.68;;;3.28;;
53263;SDS011;39153;52.680;6.172;2023-01-01T15:08:54;15.80;;;3.97;;
53263;SDS011;39153;52.680;6.172;2023-01-01T15:11:20;15.52;;;3.58;;
53263;SDS011;39153;52.680;6.172;2023-01-01T15:13:57;24.80;;;3.20;;
53263;SDS011;39153;52.680;6.172;2023-01-01T15:16:25;19.35;;;3.50;;
53263;SDS011;39153;52.680;6.172;2023-01-01T15:18:51;15.07;;;3.42;;
53263;SDS011;39153;52.680;6.172;2023-01-01T15:24:00;16.02;;;3.58;;
53263;SDS011;39153;52.680;6.172;2023-01-01T15:26:38;15.77;;;3.42;;
53263;SDS011;39153;52.680;6.172;2023-01-01T15:29:08;12.85;;;3.28;;
53263;SDS011;39153;52.680;6.172;2023-01-01T15:31:37;18.58;;;3.28;;
53263;SDS011;39153;52.680;6.172;2023-01-01T15:34:14;17.13;;;3.08;;
53263;SDS011;39153;52.680;6.172;2023-01-01T15:36:43;18.45;;;3.13;;
53263;SDS011;39153;52.680;6.172;2023-01-01T15:39:10;19.58;;;3.42;;
53263;SDS011;39153;52.680;6.172;2023-01-01T15:41:39;20.95;;;3.40;;
53263;SDS011;39153;52.680;6.172;2023-01-01T15:47:10;27.60;;;15.98;;
53263;SDS011;39153;52.680;6.172;2023-01-01T15:49:38;31.88;;;10.48;;
53263;SDS011;39153;52.680;6.172;2023-01-01T15:52:04;18.58;;;7.38;;
53263;SDS011;39153;52.680;6.172;2023-01-01T15:54:39;25.42;;;14.23;;
53263;SDS011;39153;52.680;6.172;2023-01-01T15:57:16;27.88;;;18.05;;
53263;SDS011;39153;52.680;6.172;2023-01-01T15:59:45;25.30;;;5.85;;
53263;SDS011;39153;52.680;6.172;2023-01-01T16:02:14;17.88;;;5.25;;
53263;SDS011;39153;52.680;6.172;2023-01-01T16:04:45;51.83;;;29.45;;
53263;SDS011;39153;52.680;6.172;2023-01-01T16:07:19;26.95;;;13.40;;
53263;SDS011;39153;52.680;6.172;2023-01-01T16:09:47;65.93;;;46.78;;
53263;SDS011;39153;52.680;6.172;2023-01-01T16:12:14;81.80;;;72.47;;
53263;SDS011;39153;52.680;6.172;2023-01-01T16:14:40;64.63;;;48.90;;
53263;SDS011;39153;52.680;6.172;2023-01-01T16:17:13;34.20;;;20.23;;
53263;SDS011;39153;52.680;6.172;2023-01-01T16:19:41;21.67;;;8.25;;
53263;SDS011;39153;52.680;6.172;2023-01-01T16:22:11;17.52;;;5.47;;
53263;SDS011;39153;52.680;6.172;2023-01-01T16:24:40;15.68;;;5.13;;
53263;SDS011;39153;52.680;6.172;2023-01-01T16:27:06;17.20;;;4.85;;
53263;SDS011;39153;52.680;6.172;2023-01-01T16:29:32;17.92;;;5.13;;
53263;SDS011;39153;52.680;6.172;2023-01-01T16:31:58;18.70;;;5.10;;
53263;SDS011;39153;52.680;6.172;2023-01-01T16:34:23;19.00;;;4.82;;
53263;SDS011;39153;52.680;6.172;2023-01-01T16:36:49;20.55;;;5.22;;
53263;SDS011;39153;52.680;6.172;2023-01-01T16:39:15;19.55;;;5.45;;
53263;SDS011;39153;52.680;6.172;2023-01-01T16:41:41;17.00;;;7.72;;
53263;SDS011;39153;52.680;6.172;2023-01-01T16:44:11;20.30;;;7.57;;
53263;SDS011;39153;52.680;6.172;2023-01-01T16:46:37;17.00;;;6.28;;
53263;SDS011;39153;52.680;6.172;2023-01-01T16:49:02;16.48;;;5.22;;
53263;SDS011;39153;52.680;6.172;2023-01-01T16:51:29;18.55;;;6.38;;
53263;SDS011;39153;52.680;6.172;2023-01-01T16:53:55;22.05;;;6.07;;
53263;SDS011;39153;52.680;6.172;2023-01-01T16:56:24;17.67;;;5.68;;
53263;SDS011;39153;52.680;6.172;2023-01-01T16:58:50;18.85;;;6.60;;
53263;SDS011;39153;52.680;6.172;2023-01-01T17:01:18;18.05;;;6.30;;
53263;SDS011;39153;52.680;6.172;2023-01-01T17:03:44;16.25;;;5.90;;
53263;SDS011;39153;52.680;6.172;2023-01-01T17:06:10;19.98;;;6.05;;
53263;SDS011;39153;52.680;6.172;2023-01-01T17:08:36;16.70;;;6.03;;
53263;SDS011;39153;52.680;6.172;2023-01-01T17:11:03;20.30;;;6.28;;
53263;SDS011;39153;52.680;6.172;2023-01-01T17:13:32;15.90;;;6.55;;
53263;SDS011;39153;52.680;6.172;2023-01-01T17:15:59;16.83;;;5.68;;
53263;SDS011;39153;52.680;6.172;2023-01-01T17:18:25;16.67;;;5.35;;
53263;SDS011;39153;52.680;6.172;2023-01-01T17:20:50;16.58;;;5.65;;
53263;SDS011;39153;52.680;6.172;2023-01-01T17:23:16;19.25;;;7.68;;